Time;durP1;ratioP1;P1;durP2;ratioP2;P2;SDS_P1;SDS_P2;PMS_P1;PMS_P2;Temp;Humidity;BMP_temperature;BMP_pressure;BME280_temperature;BME280_humidity;BME280_pressure;Samples;Min_cycle;Max_cycle;Signal;HPM_P1;HPM_P2
2024/01/12 00:01:51;;;;;;;58.13;18.30;;;2.50;99.90;;;;;;5058836;28;20352;-92
2024/01/12 00:04:17;;;;;;;50.00;16.20;;;2.50;99.90;;;;;;5078645;28;20050;-92
2024/01/12 00:06:42;;;;;;;64.80;18.05;;;2.50;99.90;;;;;;5077661;28;20027;-92
2024/01/12 00:09:09;;;;;;;58.85;16.90;;;2.50;99.90;;;;;;5076551;28;20111;-93
2024/01/12 00:11:34;;;;;;;52.92;17.27;;;2.50;99.90;;;;;;5078717;28;20035;-91
2024/01/12 00:14:01;;;;;;;66.35;17.65;;;2.40;99.90;;;;;;5080867;28;20027;-91
2024/01/12 00:16:26;;;;;;;73.07;18.83;;;2.50;99.90;;;;;;5077269;28;20379;-92
2024/01/12 00:18:52;;;;;;;64.40;20.42;;;2.50;99.90;;;;;;5081560;28;20027;-93
2024/01/12 00:21:18;;;;;;;65.00;20.15;;;2.40;99.90;;;;;;5065733;28;20089;-92
2024/01/12 00:23:43;;;;;;;79.60;23.33;;;2.60;99.90;;;;;;5078506;28;20028;-92
2024/01/12 00:26:09;;;;;;;59.10;19.45;;;2.40;99.90;;;;;;5094488;28;20024;-93
2024/01/12 00:28:35;;;;;;;60.53;19.93;;;2.40;99.90;;;;;;5077895;28;20024;-93
2024/01/12 00:31:00;;;;;;;68.65;18.88;;;2.50;99.90;;;;;;5077346;28;20369;-92
2024/01/12 00:33:28;;;;;;;77.65;19.88;;;2.50;99.90;;;;;;5078100;28;20035;-92
2024/01/12 00:35:56;;;;;;;82.90;25.23;;;2.50;99.90;;;;;;5081517;28;20399;-93
2024/01/12 00:38:24;;;;;;;64.97;20.00;;;2.50;99.90;;;;;;5084167;28;20028;-93
2024/01/12 00:40:50;;;;;;;;;;;2.50;99.90;;;;;;5076264;28;20179;-93
2024/01/12 00:43:15;;;;;;;64.60;20.00;;;2.50;99.90;;;;;;5070701;28;19915;-93
2024/01/12 00:45:41;;;;;;;64.10;19.55;;;2.50;99.90;;;;;;5075158;28;20564;-93
2024/01/12 00:48:09;;;;;;;55.47;18.70;;;2.50;99.90;;;;;;5077480;28;20036;-94
2024/01/12 00:50:34;;;;;;;65.78;20.20;;;2.60;99.90;;;;;;5076707;28;20394;-93
2024/01/12 00:53:00;;;;;;;66.50;20.65;;;2.50;99.90;;;;;;5084681;28;20027;-92
2024/01/12 00:55:26;;;;;;;58.47;20.17;;;2.40;99.90;;;;;;5076882;28;20028;-93
2024/01/12 00:57:53;;;;;;;61.97;18.60;;;2.40;99.90;;;;;;5073448;28;20111;-92
2024/01/12 01:00:18;;;;;;;55.85;19.08;;;2.50;99.90;;;;;;5078530;28;20024;-93
2024/01/12 01:02:46;;;;;;;56.90;18.83;;;2.50;99.90;;;;;;5071306;28;20093;-93
2024/01/12 01:05:12;;;;;;;61.80;20.02;;;2.50;99.90;;;;;;5074049;28;20028;-93
2024/01/12 01:07:38;;;;;;;55.47;19.13;;;2.50;99.90;;;;;;5065501;28;20078;-92
2024/01/12 01:10:04;;;;;;;66.18;20.23;;;2.50;99.90;;;;;;5072235;28;20025;-93
2024/01/12 01:12:29;;;;;;;62.25;18.13;;;2.50;99.90;;;;;;5066063;28;20411;-92
2024/01/12 01:14:55;;;;;;;55.30;19.02;;;2.50;99.90;;;;;;5067319;28;20024;-93
2024/01/12 01:17:20;;;;;;;57.40;18.53;;;2.50;99.90;;;;;;5071940;28;20028;-93
2024/01/12 01:19:46;;;;;;;70.55;20.15;;;2.50;99.90;;;;;;5073841;28;20823;-93
2024/01/12 01:22:14;;;;;;;49.78;17.70;;;2.50;99.90;;;;;;5068984;28;20027;-92
2024/01/12 01:24:40;;;;;;;62.08;19.13;;;2.50;99.90;;;;;;5075063;28;20029;-92
2024/01/12 01:27:07;;;;;;;56.38;17.80;;;2.50;99.90;;;;;;5073749;28;20027;-93
2024/01/12 01:29:33;;;;;;;65.20;17.65;;;2.50;99.90;;;;;;5074671;28;20127;-93
2024/01/12 01:31:58;;;;;;;14.20;6.70;;;2.50;99.90;;;;;;5069598;28;20170;-93
2024/01/12 01:34:24;;;;;;;53.10;16.43;;;2.60;99.90;;;;;;5067384;28;20025;-92
2024/01/12 01:36:49;;;;;;;54.47;17.05;;;2.50;99.90;;;;;;5071530;28;21611;-93
2024/01/12 01:39:18;;;;;;;56.10;14.67;;;2.60;99.90;;;;;;5066311;28;20029;-93
2024/01/12 01:41:46;;;;;;;55.30;16.63;;;2.50;99.90;;;;;;5070545;28;20032;-93
2024/01/12 01:44:11;;;;;;;77.38;23.40;;;2.60;99.90;;;;;;5077087;28;20392;-93
2024/01/12 01:46:37;;;;;;;;;;;2.70;99.90;;;;;;5077398;28;20076;-93
2024/01/12 01:49:05;;;;;;;65.88;20.70;;;2.60;99.90;;;;;;5079727;28;20404;-93
2024/01/12 01:51:31;;;;;;;83.47;19.00;;;2.60;99.90;;;;;;5071285;28;20055;-92
2024/01/12 01:53:57;;;;;;;50.13;16.83;;;2.60;99.90;;;;;;5087941;28;20047;-94
2024/01/12 01:56:22;;;;;;;55.80;17.92;;;2.60;99.90;;;;;;5077381;28;20494;-91
2024/01/12 01:58:48;;;;;;;54.95;16.77;;;2.60;99.90;;;;;;5078892;28;20729;-92
2024/01/12 02:01:15;;;;;;;53.70;15.90;;;2.60;99.90;;;;;;5077152;28;20035;-93
2024/01/12 02:03:41;;;;;;;55.40;15.70;;;2.60;99.90;;;;;;5071142;28;20024;-92
2024/01/12 02:06:08;;;;;;;53.05;15.00;;;2.60;99.90;;;;;;5074348;28;20413;-93
2024/01/12 02:08:34;;;;;;;55.78;15.63;;;2.60;99.90;;;;;;5057623;28;20031;-91
2024/01/12 02:10:59;;;;;;;54.10;14.82;;;2.60;99.90;;;;;;5077218;28;20020;-93
2024/01/12 02:13:25;;;;;;;52.03;15.15;;;2.60;99.90;;;;;;5073603;28;20073;-93
2024/01/12 02:15:50;;;;;;;54.30;16.05;;;2.60;99.90;;;;;;5093716;28;20533;-92
2024/01/12 02:18:16;;;;;;;47.90;15.50;;;2.60;99.90;;;;;;5076497;28;20016;-92
2024/01/12 02:20:42;;;;;;;48.03;15.35;;;2.50;99.90;;;;;;5081190;28;20032;-93
2024/01/12 02:23:07;;;;;;;52.85;16.45;;;2.60;99.90;;;;;;5068487;28;20024;-92
2024/01/12 02:25:36;;;;;;;52.70;15.88;;;2.50;99.90;;;;;;5074277;28;20039;-91
2024/01/12 02:28:03;;;;;;;54.22;15.30;;;2.60;99.90;;;;;;5071211;28;20024;-93
2024/01/12 02:30:29;;;;;;;;;;;2.50;99.90;;;;;;5063398;28;20115;-93
2024/01/12 02:32:57;;;;;;;62.65;19.52;;;2.70;99.90;;;;;;5076660;28;21113;-93
2024/01/12 02:35:22;;;;;;;45.45;13.80;;;2.40;99.90;;;;;;5073743;28;20127;-91
2024/01/12 02:37:48;;;;;;;52.10;15.27;;;2.40;99.90;;;;;;5055417;28;20616;-93
2024/01/12 02:40:13;;;;;;;55.57;14.93;;;2.40;99.90;;;;;;5055530;28;20035;-92
2024/01/12 02:42:39;;;;;;;;;;;2.60;99.90;;;;;;5076140;28;20498;-93
2024/01/12 02:45:05;;;;;;;53.80;17.97;;;2.50;99.90;;;;;;5072225;28;20470;-92
2024/01/12 02:47:30;;;;;;;56.95;16.33;;;2.50;99.90;;;;;;5076805;28;20058;-91
2024/01/12 02:49:56;;;;;;;47.00;14.75;;;2.50;99.90;;;;;;5076553;28;20031;-93
2024/01/12 02:52:23;;;;;;;67.20;19.55;;;2.50;99.90;;;;;;5075521;28;20384;-92
2024/01/12 02:54:49;;;;;;;64.93;17.97;;;2.50;99.90;;;;;;5076072;28;20035;-90
2024/01/12 02:57:14;;;;;;;52.15;15.85;;;2.60;99.90;;;;;;5069744;28;21039;-91
2024/01/12 02:59:40;;;;;;;58.38;16.90;;;2.50;99.90;;;;;;5071450;28;20094;-91
2024/01/12 03:02:06;;;;;;;61.13;16.02;;;2.50;99.90;;;;;;5074804;28;20032;-92
2024/01/12 03:04:33;;;;;;;60.78;15.65;;;2.50;99.90;;;;;;5074798;28;20023;-92
2024/01/12 03:07:01;;;;;;;56.17;15.45;;;2.50;99.90;;;;;;5089247;28;20050;-90
2024/01/12 03:09:29;;;;;;;54.75;16.10;;;2.50;99.90;;;;;;5091604;28;20082;-94
2024/01/12 03:11:55;;;;;;;74.45;22.80;;;2.50;99.90;;;;;;5072855;28;20407;-93
2024/01/12 03:14:21;;;;;;;70.53;19.17;;;2.50;99.90;;;;;;5070194;28;20099;-93
2024/01/12 03:16:46;;;;;;;59.42;17.23;;;2.50;99.90;;;;;;5072385;28;20035;-91
2024/01/12 03:19:12;;;;;;;57.08;17.30;;;2.50;99.90;;;;;;5075457;28;20027;-93
2024/01/12 03:21:40;;;;;;;;;;;2.50;99.90;;;;;;5074385;28;20039;-92
2024/01/12 03:24:05;;;;;;;;;;;2.60;99.90;;;;;;5067195;28;19965;-93
2024/01/12 03:26:36;;;;;;;49.28;16.15;;;2.50;99.90;;;;;;5068746;28;20376;-93
2024/01/12 03:29:01;;;;;;;60.08;18.15;;;2.50;99.90;;;;;;5075605;28;20403;-92
2024/01/12 03:31:29;;;;;;;54.88;17.55;;;2.40;99.90;;;;;;5050718;28;20043;-93
2024/01/12 03:33:55;;;;;;;55.97;16.45;;;2.40;99.90;;;;;;5089612;28;20024;-92
2024/01/12 03:36:22;;;;;;;;;;;2.40;99.90;;;;;;5075320;28;20397;-92
2024/01/12 03:38:48;;;;;;;63.27;19.73;;;2.40;99.90;;;;;;5071721;28;20459;-93
2024/01/12 03:41:13;;;;;;;;;;;2.40;99.90;;;;;;5075940;28;20089;-93
2024/01/12 03:43:39;;;;;;;;;;;2.30;99.90;;;;;;5074412;28;19920;-92
2024/01/12 03:46:05;;;;;;;72.43;21.17;;;2.40;99.90;;;;;;5078243;28;20527;-94
2024/01/12 03:48:30;;;;;;;;;;;2.40;99.90;;;;;;5077624;28;20032;-92
2024/01/12 03:50:56;;;;;;;72.50;21.30;;;2.40;99.90;;;;;;5080167;28;20430;-92
2024/01/12 03:53:21;;;;;;;71.63;18.75;;;2.30;99.90;;;;;;5074780;28;20082;-93
2024/01/12 03:55:47;;;;;;;64.85;16.88;;;2.40;99.90;;;;;;5085965;28;20036;-92
2024/01/12 03:58:13;;;;;;;68.95;18.90;;;2.40;99.90;;;;;;5095090;28;20028;-91
2024/01/12 04:00:39;;;;;;;50.83;16.73;;;2.30;99.90;;;;;;5097190;28;20055;-92
2024/01/12 04:03:05;;;;;;;52.90;16.60;;;2.30;99.90;;;;;;5087665;28;20028;-93
2024/01/12 04:05:30;;;;;;;56.90;14.90;;;2.20;99.90;;;;;;5071809;28;20455;-92
2024/01/12 04:07:56;;;;;;;61.65;16.25;;;2.30;99.90;;;;;;5071387;28;20025;-92
2024/01/12 04:10:21;;;;;;;53.53;15.75;;;2.20;99.90;;;;;;5071045;28;20511;-91
2024/01/12 04:12:47;;;;;;;57.90;16.85;;;2.20;99.90;;;;;;5073959;28;20058;-93
2024/01/12 04:15:13;;;;;;;54.80;15.65;;;2.20;99.90;;;;;;5058589;28;20074;-93
2024/01/12 04:17:38;;;;;;;45.90;15.23;;;2.20;99.90;;;;;;5069943;28;20035;-93
2024/01/12 04:20:04;;;;;;;53.97;16.98;;;2.20;99.90;;;;;;5074177;28;20035;-92
2024/01/12 04:22:30;;;;;;;52.67;15.27;;;2.30;99.90;;;;;;5067452;28;20122;-93
2024/01/12 04:24:56;;;;;;;49.25;16.20;;;2.20;99.90;;;;;;5070316;28;20028;-92
2024/01/12 04:27:21;;;;;;;55.70;16.58;;;2.20;99.90;;;;;;5070683;28;20024;-91
2024/01/12 04:29:47;;;;;;;61.40;17.10;;;2.30;99.90;;;;;;5074143;28;20023;-92
2024/01/12 04:32:12;;;;;;;61.42;17.35;;;2.30;99.90;;;;;;5071921;28;20246;-92
2024/01/12 04:34:38;;;;;;;52.28;14.95;;;2.30;99.90;;;;;;5078986;28;20043;-91
2024/01/12 04:37:05;;;;;;;68.38;18.02;;;2.30;99.90;;;;;;5112452;28;20085;-93
2024/01/12 04:39:31;;;;;;;56.72;17.25;;;2.40;99.90;;;;;;5075835;28;20020;-91
2024/01/12 04:41:58;;;;;;;62.92;17.50;;;2.40;99.90;;;;;;5073695;28;20522;-92
2024/01/12 04:44:24;;;;;;;64.15;16.70;;;2.20;99.90;;;;;;5071350;28;20028;-93
2024/01/12 04:46:50;;;;;;;61.97;17.52;;;2.20;99.90;;;;;;5091919;28;20059;-92
2024/01/12 04:49:16;;;;;;;62.13;17.85;;;2.30;99.90;;;;;;5075606;28;20027;-93
2024/01/12 04:51:41;;;;;;;59.20;18.00;;;2.20;99.90;;;;;;5073877;28;20031;-92
2024/01/12 04:54:07;;;;;;;53.85;15.75;;;2.30;99.90;;;;;;5075492;28;20115;-93
2024/01/12 04:56:32;;;;;;;57.53;16.05;;;2.20;99.90;;;;;;5071707;28;20032;-93
2024/01/12 04:58:58;;;;;;;59.70;17.60;;;2.30;99.90;;;;;;5071143;28;20453;-92
2024/01/12 05:01:24;;;;;;;59.63;19.48;;;2.20;99.90;;;;;;5075725;28;20087;-92
2024/01/12 05:03:50;;;;;;;60.85;18.13;;;2.20;99.90;;;;;;5065221;28;20067;-93
2024/01/12 05:06:16;;;;;;;60.22;18.58;;;2.20;99.90;;;;;;5074234;28;20226;-91
2024/01/12 05:08:42;;;;;;;56.03;18.50;;;2.30;99.90;;;;;;5074020;28;20107;-93
2024/01/12 05:11:10;;;;;;;57.90;18.02;;;2.20;99.90;;;;;;5073225;28;20021;-93
2024/01/12 05:13:36;;;;;;;65.63;20.05;;;2.30;99.90;;;;;;5073948;28;20052;-93
2024/01/12 05:16:01;;;;;;;65.75;20.17;;;2.20;99.90;;;;;;5074392;28;20027;-91
2024/01/12 05:18:27;;;;;;;69.95;19.10;;;2.30;99.90;;;;;;5070070;28;20119;-93
2024/01/12 05:20:53;;;;;;;68.28;19.33;;;2.30;99.90;;;;;;5039716;28;20385;-92
2024/01/12 05:23:20;;;;;;;57.22;19.15;;;2.40;99.90;;;;;;5061508;28;20040;-92
2024/01/12 05:25:46;;;;;;;59.38;19.33;;;2.30;99.90;;;;;;5067549;28;20064;-92
2024/01/12 05:28:12;;;;;;;58.60;19.00;;;2.30;99.90;;;;;;5076022;28;20036;-91
2024/01/12 05:30:37;;;;;;;71.50;20.27;;;2.30;99.90;;;;;;5076775;28;20432;-93
2024/01/12 05:33:03;;;;;;;52.80;18.17;;;2.20;99.90;;;;;;5071003;28;20020;-93
2024/01/12 05:35:29;;;;;;;66.40;19.95;;;2.20;99.90;;;;;;5055726;28;20064;-93
2024/01/12 05:37:55;;;;;;;63.00;19.15;;;2.30;99.90;;;;;;5071137;28;20024;-91
2024/01/12 05:40:20;;;;;;;69.45;19.48;;;2.20;99.90;;;;;;5074421;28;20021;-93
2024/01/12 05:42:46;;;;;;;58.00;19.23;;;2.20;99.90;;;;;;5075799;28;20894;-91
2024/01/12 05:45:12;;;;;;;60.78;20.83;;;2.20;99.90;;;;;;5075123;28;20606;-92
2024/01/12 05:47:38;;;;;;;51.72;17.65;;;2.20;99.90;;;;;;5063174;28;20503;-92
2024/01/12 05:50:07;;;;;;;58.88;19.65;;;2.20;99.90;;;;;;5068966;28;20114;-93
2024/01/12 05:52:34;;;;;;;57.88;19.17;;;2.10;99.90;;;;;;5076734;28;20024;-93
2024/01/12 05:55:02;;;;;;;62.60;18.75;;;2.20;99.90;;;;;;5075419;28;20036;-91
2024/01/12 05:57:28;;;;;;;;;;;2.10;99.90;;;;;;5076703;28;20081;-93
2024/01/12 05:59:53;;;;;;;51.85;16.58;;;2.20;99.90;;;;;;5069684;28;19908;-90
2024/01/12 06:02:19;;;;;;;58.15;18.58;;;2.10;99.90;;;;;;5073469;28;20028;-93
2024/01/12 06:04:45;;;;;;;60.72;18.20;;;2.10;99.90;;;;;;5067898;28;20082;-93
2024/01/12 06:07:10;;;;;;;60.63;18.02;;;2.20;99.90;;;;;;5066865;28;20023;-92
2024/01/12 06:09:37;;;;;;;58.65;19.52;;;2.10;99.90;;;;;;5075190;28;20025;-93
2024/01/12 06:12:03;;;;;;;45.97;18.65;;;2.10;99.90;;;;;;5069170;28;20020;-93
2024/01/12 06:14:29;;;;;;;68.50;19.00;;;2.10;99.90;;;;;;5071249;28;20028;-92
2024/01/12 06:16:55;;;;;;;47.00;16.05;;;2.10;99.90;;;;;;5060986;28;20055;-91
2024/01/12 06:19:24;;;;;;;53.25;17.38;;;2.10;99.90;;;;;;5077241;28;20475;-93
2024/01/12 06:21:49;;;;;;;45.83;15.93;;;2.10;99.90;;;;;;5091478;28;20118;-93
2024/01/12 06:24:15;;;;;;;50.83;16.17;;;2.10;99.90;;;;;;5071353;28;20115;-91
2024/01/12 06:26:43;;;;;;;44.10;15.10;;;2.10;99.90;;;;;;5071041;28;20021;-92
2024/01/12 06:29:09;;;;;;;50.17;16.20;;;2.20;99.90;;;;;;5065325;28;20032;-91
2024/01/12 06:31:36;;;;;;;48.55;16.70;;;2.10;99.90;;;;;;5072421;28;20141;-93
2024/01/12 06:34:02;;;;;;;54.58;16.60;;;2.10;99.90;;;;;;5079223;28;20027;-93
2024/01/12 06:36:28;;;;;;;42.40;16.30;;;2.10;99.90;;;;;;5075290;28;20037;-93
2024/01/12 06:38:53;;;;;;;41.50;15.57;;;2.10;99.90;;;;;;5069531;28;20028;-93
2024/01/12 06:41:19;;;;;;;45.97;16.65;;;2.10;99.90;;;;;;5066995;28;20035;-90
2024/01/12 06:43:44;;;;;;;44.45;16.58;;;2.10;99.90;;;;;;5086887;28;20020;-93
2024/01/12 06:46:10;;;;;;;47.50;16.45;;;2.20;99.90;;;;;;5080597;28;20039;-92
2024/01/12 06:48:36;;;;;;;49.80;17.17;;;2.20;99.90;;;;;;5082202;28;20032;-92
2024/01/12 06:51:01;;;;;;;43.78;15.73;;;2.20;99.90;;;;;;5083290;28;20069;-92
2024/01/12 06:53:27;;;;;;;41.67;14.75;;;2.20;99.90;;;;;;5077585;28;20038;-92
2024/01/12 06:55:53;;;;;;;44.67;14.25;;;2.10;99.90;;;;;;5071892;28;20032;-91
2024/01/12 06:58:19;;;;;;;41.65;14.98;;;2.20;99.90;;;;;;5092048;28;20039;-92
2024/01/12 07:00:45;;;;;;;40.45;15.82;;;2.10;99.90;;;;;;5083446;28;20021;-92
2024/01/12 07:03:11;;;;;;;45.58;17.35;;;2.10;99.90;;;;;;5083487;28;20023;-92
2024/01/12 07:05:37;;;;;;;47.38;16.17;;;2.10;99.90;;;;;;5075664;28;20028;-91
2024/01/12 07:08:03;;;;;;;51.58;17.20;;;2.20;99.90;;;;;;5071864;28;20055;-93
2024/01/12 07:10:28;;;;;;;48.20;17.30;;;2.10;99.90;;;;;;5079196;28;20043;-93
2024/01/12 07:12:54;;;;;;;55.72;19.42;;;2.10;99.90;;;;;;5071884;28;20024;-93
2024/01/12 07:15:20;;;;;;;52.33;19.75;;;2.20;99.90;;;;;;5083273;28;20032;-93
2024/01/12 07:17:49;;;;;;;50.63;18.10;;;2.10;99.90;;;;;;5072845;28;20016;-92
2024/01/12 07:20:15;;;;;;;52.38;19.73;;;2.10;99.90;;;;;;5079249;28;20024;-93
2024/01/12 07:22:41;;;;;;;61.47;18.25;;;2.10;99.90;;;;;;5074838;28;20016;-92
2024/01/12 07:25:07;;;;;;;52.83;20.10;;;2.10;99.90;;;;;;5078417;28;20046;-94
2024/01/12 07:27:32;;;;;;;49.95;19.38;;;2.10;99.90;;;;;;5081762;28;20042;-91
2024/01/12 07:29:58;;;;;;;64.20;21.13;;;2.10;99.90;;;;;;5080113;28;20470;-94
2024/01/12 07:32:26;;;;;;;62.90;21.17;;;2.10;99.90;;;;;;5078741;28;20123;-93
2024/01/12 07:34:52;;;;;;;;;;;2.10;99.90;;;;;;5070891;28;20028;-95
2024/01/12 07:37:17;;;;;;;46.25;17.10;;;2.10;99.90;;;;;;5081062;28;19908;-94
2024/01/12 07:39:44;;;;;;;51.17;17.52;;;2.00;99.90;;;;;;5092696;28;20023;-93
2024/01/12 07:42:09;;;;;;;47.85;18.20;;;1.90;99.90;;;;;;5072580;28;20027;-94
2024/01/12 07:44:37;;;;;;;50.00;20.15;;;2.00;99.90;;;;;;5082540;28;20138;-93
2024/01/12 07:47:03;;;;;;;62.40;22.95;;;2.00;99.90;;;;;;5085669;28;20030;-92
2024/01/12 07:49:28;;;;;;;53.70;20.70;;;1.90;99.90;;;;;;5094921;28;20056;-94
2024/01/12 07:51:54;;;;;;;52.13;18.17;;;2.00;99.90;;;;;;5083283;28;20028;-95
2024/01/12 07:54:20;;;;;;;49.17;19.20;;;1.90;99.90;;;;;;5091253;28;20127;-94
2024/01/12 07:56:45;;;;;;;51.50;18.77;;;1.90;99.90;;;;;;5084508;28;20024;-94
2024/01/12 07:59:11;;;;;;;45.33;17.25;;;1.80;99.90;;;;;;5082681;28;20040;-93
2024/01/12 08:01:40;;;;;;;53.85;19.50;;;2.00;99.90;;;;;;5090371;28;20101;-92
2024/01/12 08:04:06;;;;;;;52.50;17.42;;;2.00;99.90;;;;;;5090415;28;20489;-92
2024/01/12 08:06:32;;;;;;;51.70;19.77;;;2.00;99.90;;;;;;5083158;28;20025;-95
2024/01/12 08:08:59;;;;;;;47.97;18.83;;;1.90;99.90;;;;;;5101660;28;20048;-94
2024/01/12 08:11:24;;;;;;;53.35;18.67;;;1.90;99.90;;;;;;5090381;27;20028;-95
2024/01/12 08:13:50;;;;;;;51.03;20.25;;;1.90;99.90;;;;;;5082553;28;20375;-94
2024/01/12 08:16:16;;;;;;;57.28;19.85;;;2.00;99.90;;;;;;5084897;28;20040;-96
2024/01/12 08:18:43;;;;;;;52.78;16.88;;;2.00;99.90;;;;;;5088782;28;20115;-95
2024/01/12 08:21:09;;;;;;;52.30;16.50;;;2.00;99.90;;;;;;5089238;28;20088;-95
2024/01/12 08:23:35;;;;;;;52.33;16.85;;;1.90;99.90;;;;;;5084658;28;20032;-95
2024/01/12 08:28:56;;;;;;;62.15;18.05;;;1.90;99.90;;;;;;5096315;28;20102;-95
2024/01/12 08:31:22;;;;;;;58.85;19.00;;;2.00;99.90;;;;;;5087589;28;20200;-96
2024/01/12 08:33:49;;;;;;;52.05;18.42;;;1.90;99.90;;;;;;5089208;28;20046;-93
2024/01/12 08:36:15;;;;;;;48.03;17.02;;;2.10;99.90;;;;;;5085287;28;20032;-93
2024/01/12 08:38:42;;;;;;;40.63;15.45;;;2.10;99.90;;;;;;5081368;28;20077;-96
2024/01/12 08:41:10;;;;;;;36.08;14.20;;;2.00;99.90;;;;;;5085646;28;20033;-95
2024/01/12 08:43:35;;;;;;;53.30;17.88;;;2.00;99.90;;;;;;5088709;28;20025;-95
2024/01/12 08:46:01;;;;;;;41.55;17.33;;;2.00;99.90;;;;;;5083188;28;20033;-95
2024/01/12 08:48:36;;;;;;;42.20;15.98;;;1.90;99.90;;;;;;5081482;28;20043;-94
2024/01/12 08:51:02;;;;;;;51.22;17.20;;;1.90;99.90;;;;;;5074772;28;20032;-95
2024/01/12 08:53:27;;;;;;;47.58;17.55;;;1.90;99.90;;;;;;5079614;28;20024;-93
2024/01/12 08:55:55;;;;;;;38.28;13.93;;;2.00;99.90;;;;;;5085308;28;20147;-94
2024/01/12 08:58:21;;;;;;;33.78;14.15;;;2.00;99.90;;;;;;5081817;28;20009;-95
2024/01/12 09:00:47;;;;;;;38.55;14.45;;;2.00;99.90;;;;;;5081989;28;20395;-95
2024/01/12 09:03:20;;;;;;;38.75;15.13;;;2.00;99.90;;;;;;5081228;28;20516;-95
2024/01/12 09:05:46;;;;;;;31.15;12.88;;;2.00;99.90;;;;;;5077928;28;20043;-93
2024/01/12 09:08:18;;;;;;;31.85;14.27;;;2.00;99.90;;;;;;5079474;28;20017;-95
2024/01/12 09:10:44;;;;;;;37.33;14.60;;;2.00;99.90;;;;;;5078109;28;20055;-94
2024/01/12 09:13:10;;;;;;;38.88;15.27;;;2.10;99.90;;;;;;5079712;28;20024;-94
2024/01/12 09:15:36;;;;;;;43.22;15.93;;;2.10;99.90;;;;;;5080799;28;20031;-94
2024/01/12 09:18:03;;;;;;;35.70;14.82;;;2.10;99.90;;;;;;5082439;28;20046;-95
2024/01/12 09:20:36;;;;;;;39.35;14.45;;;2.10;99.90;;;;;;5080161;28;20661;-95
2024/01/12 09:23:02;;;;;;;41.28;15.82;;;2.10;99.90;;;;;;5076318;28;20032;-95
2024/01/12 09:25:27;;;;;;;44.30;15.98;;;2.10;99.90;;;;;;5086313;28;20092;-94
2024/01/12 09:27:55;;;;;;;41.60;16.58;;;2.10;99.90;;;;;;5083724;28;20047;-94
2024/01/12 09:30:21;;;;;;;38.88;15.70;;;2.10;99.90;;;;;;5075408;28;20028;-94
2024/01/12 09:32:56;;;;;;;41.95;16.15;;;2.20;99.90;;;;;;5076805;28;20111;-96
2024/01/12 09:35:21;;;;;;;35.92;14.90;;;2.10;99.90;;;;;;5080686;28;20032;-95
2024/01/12 09:37:50;;;;;;;44.92;16.23;;;2.20;99.90;;;;;;5087324;28;20083;-93
2024/01/12 09:40:17;;;;;;;40.90;14.48;;;2.20;99.90;;;;;;5079473;28;20032;-91
2024/01/12 09:42:54;;;;;;;33.63;14.43;;;2.30;99.90;;;;;;5078272;28;20009;-92
2024/01/12 09:45:23;;;;;;;39.22;15.18;;;2.30;99.90;;;;;;5071199;28;20226;-92
2024/01/12 09:47:49;;;;;;;35.97;13.88;;;2.30;99.90;;;;;;5088462;28;20032;-90
2024/01/12 09:50:17;;;;;;;31.45;14.15;;;2.30;99.90;;;;;;5079943;28;20059;-91
2024/01/12 09:52:51;;;;;;;32.83;14.57;;;2.40;99.90;;;;;;5079536;28;20016;-91
2024/01/12 09:55:17;;;;;;;26.98;12.88;;;2.40;99.90;;;;;;5086451;28;20040;-91
2024/01/12 09:57:44;;;;;;;31.25;13.20;;;2.40;99.90;;;;;;5084774;28;20020;-91
2024/01/12 10:00:13;;;;;;;28.90;13.52;;;2.40;99.90;;;;;;5090131;28;20100;-92
2024/01/12 10:02:48;;;;;;;30.92;13.23;;;2.40;99.90;;;;;;5082587;28;20037;-91
2024/01/12 10:05:13;;;;;;;33.40;13.75;;;2.50;99.90;;;;;;5084102;28;20055;-93
2024/01/12 10:07:39;;;;;;;40.03;14.27;;;2.50;99.90;;;;;;5081766;28;20024;-91
2024/01/12 10:10:06;;;;;;;36.67;12.90;;;2.50;99.90;;;;;;5083817;28;20032;-90
2024/01/12 10:12:34;;;;;;;41.00;13.90;;;2.50;99.90;;;;;;5092971;28;20049;-89
2024/01/12 10:15:01;;;;;;;27.67;12.57;;;2.60;99.90;;;;;;5097104;28;20020;-91
2024/01/12 10:17:28;;;;;;;27.38;13.63;;;2.60;99.90;;;;;;5085575;28;20036;-91
2024/01/12 10:19:55;;;;;;;29.33;12.68;;;2.60;99.90;;;;;;5094304;28;20016;-90
2024/01/12 10:22:21;;;;;;;30.77;13.07;;;2.60;99.90;;;;;;5093927;28;20076;-89
2024/01/12 10:24:46;;;;;;;25.65;11.80;;;2.60;99.90;;;;;;5105504;28;20028;-91
2024/01/12 10:27:13;;;;;;;29.73;12.35;;;2.60;99.90;;;;;;5084945;28;20063;-91
2024/01/12 10:29:41;;;;;;;25.45;11.40;;;2.70;99.90;;;;;;5089742;28;20066;-91
2024/01/12 10:32:07;;;;;;;24.00;11.55;;;2.70;99.90;;;;;;5092084;28;20023;-90
2024/01/12 10:34:33;;;;;;;23.13;11.15;;;2.60;99.90;;;;;;5074733;28;20028;-90
2024/01/12 10:36:59;;;;;;;25.27;12.07;;;2.70;99.90;;;;;;5089824;28;20227;-91
2024/01/12 10:39:28;;;;;;;37.55;13.27;;;2.70;99.90;;;;;;5094221;28;20028;-91
2024/01/12 10:42:11;;;;;;;28.70;12.02;;;2.70;99.90;;;;;;5093529;28;20020;-92
2024/01/12 10:44:40;;;;;;;26.63;11.68;;;2.70;99.90;;;;;;5091654;28;20016;-93
2024/01/12 10:47:16;;;;;;;22.63;10.68;;;2.70;99.90;;;;;;5091779;28;20024;-92
2024/01/12 10:49:49;;;;;;;29.33;10.53;;;2.70;99.90;;;;;;5076564;28;20056;-92
2024/01/12 10:52:24;;;;;;;28.83;11.93;;;2.70;99.90;;;;;;5076827;28;20035;-92
2024/01/12 10:54:56;;;;;;;33.53;11.38;;;2.80;99.90;;;;;;5078540;28;20032;-92
2024/01/12 10:57:22;;;;;;;29.40;12.25;;;2.90;99.90;;;;;;5082155;28;20610;-93
2024/01/12 10:59:49;;;;;;;36.35;11.85;;;2.80;99.90;;;;;;5083930;28;20020;-92
2024/01/12 11:02:15;;;;;;;26.33;11.32;;;2.80;99.90;;;;;;5081605;28;20028;-91
2024/01/12 11:04:44;;;;;;;24.77;11.35;;;2.90;99.90;;;;;;5080921;28;20036;-91
2024/01/12 11:07:14;;;;;;;29.42;12.07;;;2.90;99.90;;;;;;5076820;28;20017;-92
2024/01/12 11:09:40;;;;;;;31.27;11.13;;;2.90;99.90;;;;;;5069204;28;20043;-92
2024/01/12 11:12:31;;;;;;;29.13;12.73;;;3.00;99.90;;;;;;5079613;28;20024;-92
2024/01/12 11:14:59;;;;;;;29.90;12.20;;;3.00;99.90;;;;;;5067039;28;20061;-92
2024/01/12 11:17:29;;;;;;;32.78;13.15;;;2.90;99.90;;;;;;5083175;28;20035;-92
2024/01/12 11:20:12;;;;;;;36.88;14.02;;;2.90;99.90;;;;;;5075344;28;20042;-92
2024/01/12 11:22:38;;;;;;;33.70;12.05;;;2.90;99.90;;;;;;5084251;28;20027;-92
2024/01/12 11:25:06;;;;;;;39.30;12.93;;;3.10;99.90;;;;;;5081230;28;20024;-91
2024/01/12 11:27:39;;;;;;;32.53;14.55;;;2.90;99.90;;;;;;5091618;28;20012;-92
2024/01/12 11:30:05;;;;;;;34.70;14.35;;;3.00;99.90;;;;;;5072334;28;20310;-92
2024/01/12 11:32:32;;;;;;;37.15;14.43;;;3.00;99.90;;;;;;5081621;28;20024;-93
2024/01/12 11:35:17;;;;;;;34.25;13.50;;;3.10;99.90;;;;;;5097477;28;20044;-91
2024/01/12 11:37:58;;;;;;;31.88;14.07;;;3.10;99.90;;;;;;5077048;28;20498;-92
2024/01/12 11:40:25;;;;;;;38.80;14.52;;;3.10;99.90;;;;;;5069114;28;20100;-92
2024/01/12 11:42:51;;;;;;;37.97;15.35;;;3.10;99.90;;;;;;5077690;28;20038;-91
2024/01/12 11:45:18;;;;;;;40.58;15.07;;;3.10;99.90;;;;;;5076055;28;20290;-92
2024/01/12 11:47:44;;;;;;;40.60;15.63;;;3.20;99.90;;;;;;5073637;28;20111;-92
2024/01/12 11:50:12;;;;;;;40.35;16.20;;;3.40;99.90;;;;;;5072301;28;20087;-92
2024/01/12 11:52:39;;;;;;;32.60;13.80;;;3.30;99.90;;;;;;5065184;28;20027;-92
2024/01/12 11:55:10;;;;;;;37.13;16.10;;;3.30;99.90;;;;;;5058061;28;20036;-91
2024/01/12 11:57:37;;;;;;;44.83;15.70;;;3.40;99.90;;;;;;5067933;28;20109;-93
2024/01/12 12:00:04;;;;;;;27.00;13.30;;;3.30;99.90;;;;;;5051878;28;20027;-91
2024/01/12 12:02:30;;;;;;;30.35;13.85;;;3.30;99.90;;;;;;5073694;28;20028;-92
2024/01/12 12:04:56;;;;;;;34.42;13.30;;;3.30;99.90;;;;;;5070303;28;20214;-93
2024/01/12 12:07:26;;;;;;;34.90;13.65;;;3.30;99.90;;;;;;5069229;28;20494;-92
2024/01/12 12:09:53;;;;;;;33.70;13.90;;;3.30;99.90;;;;;;5071107;28;20386;-92
2024/01/12 12:12:23;;;;;;;25.23;12.07;;;3.30;99.90;;;;;;5076330;28;20032;-92
2024/01/12 12:15:08;;;;;;;31.23;11.98;;;3.30;99.90;;;;;;5072635;28;20046;-92
2024/01/12 12:17:36;;;;;;;29.77;12.80;;;3.30;99.90;;;;;;5068316;28;20025;-91
2024/01/12 12:20:04;;;;;;;34.63;12.13;;;3.30;99.90;;;;;;5076333;28;20024;-92
2024/01/12 12:22:39;;;;;;;29.27;13.02;;;3.30;99.90;;;;;;5071775;28;20032;-91
2024/01/12 12:25:09;;;;;;;31.00;12.85;;;3.30;99.90;;;;;;5076075;28;20117;-91
2024/01/12 12:27:43;;;;;;;32.30;12.50;;;3.30;99.90;;;;;;5064879;28;20039;-91
2024/01/12 12:30:10;;;;;;;28.80;12.43;;;3.30;99.90;;;;;;5066784;28;20628;-92
2024/01/12 12:32:40;;;;;;;24.23;11.70;;;3.30;99.90;;;;;;5076063;28;20444;-92
2024/01/12 12:35:19;;;;;;;30.33;13.10;;;3.30;99.90;;;;;;5076458;28;20095;-92
2024/01/12 12:37:48;;;;;;;25.58;11.55;;;3.30;99.90;;;;;;5083396;28;20043;-90
2024/01/12 12:40:15;;;;;;;22.35;11.18;;;3.30;99.90;;;;;;5066025;28;20059;-92
2024/01/12 12:42:43;;;;;;;32.40;12.07;;;3.40;99.90;;;;;;5080551;28;20028;-93